sensor_id;sensor_type;location;lat;lon;timestamp;P1;durP1;ratioP1;P2;durP2;ratioP2
68608;SDS011;55581;46.718;7.690;2023-07-09T00:02:22;6.97;;;3.53;;
68608;SDS011;55581;46.718;7.690;2023-07-09T00:04:52;6.57;;;3.08;;
68608;SDS011;55581;46.718;7.690;2023-07-09T00:07:25;7.43;;;3.07;;
68608;SDS011;55581;46.718;7.690;2023-07-09T00:09:54;7.63;;;3.65;;
68608;SDS011;55581;46.718;7.690;2023-07-09T00:12:20;7.35;;;3.70;;
68608;SDS011;55581;46.718;7.690;2023-07-09T00:14:46;8.60;;;3.75;;
68608;SDS011;55581;46.718;7.690;2023-07-09T00:17:21;7.17;;;3.43;;
68608;SDS011;55581;46.718;7.690;2023-07-09T00:19:51;7.80;;;3.25;;
68608;SDS011;55581;46.718;7.690;2023-07-09T00:22:17;11.32;;;3.20;;
68608;SDS011;55581;46.718;7.690;2023-07-09T00:24:44;7.88;;;3.72;;
68608;SDS011;55581;46.718;7.690;2023-07-09T00:27:12;6.60;;;3.33;;
68608;SDS011;55581;46.718;7.690;2023-07-09T00:29:40;7.28;;;3.33;;
68608;SDS011;55581;46.718;7.690;2023-07-09T00:32:17;7.15;;;3.58;;
68608;SDS011;55581;46.718;7.690;2023-07-09T00:34:45;7.05;;;3.03;;
68608;SDS011;55581;46.718;7.690;2023-07-09T00:37:14;6.60;;;3.17;;
68608;SDS011;55581;46.718;7.690;2023-07-09T00:39:42;6.30;;;3.17;;
68608;SDS011;55581;46.718;7.690;2023-07-09T00:42:11;6.68;;;3.03;;
68608;SDS011;55581;46.718;7.690;2023-07-09T00:44:45;7.68;;;3.22;;
68608;SDS011;55581;46.718;7.690;2023-07-09T00:49:49;11.55;;;4.03;;
68608;SDS011;55581;46.718;7.690;2023-07-09T00:52:24;7.88;;;3.03;;
68608;SDS011;55581;46.718;7.690;2023-07-09T00:54:55;7.22;;;3.17;;
68608;SDS011;55581;46.718;7.690;2023-07-09T00:57:24;7.82;;;3.20;;
68608;SDS011;55581;46.718;7.690;2023-07-09T01:00:04;6.93;;;3.00;;
68608;SDS011;55581;46.718;7.690;2023-07-09T01:02:37;10.00;;;3.03;;
68608;SDS011;55581;46.718;7.690;2023-07-09T01:05:05;6.05;;;3.10;;
68608;SDS011;55581;46.718;7.690;2023-07-09T01:07:31;7.50;;;3.03;;
68608;SDS011;55581;46.718;7.690;2023-07-09T01:09:57;7.45;;;3.00;;
68608;SDS011;55581;46.718;7.690;2023-07-09T01:12:23;10.77;;;3.23;;
68608;SDS011;55581;46.718;7.690;2023-07-09T01:14:49;7.00;;;3.03;;
68608;SDS011;55581;46.718;7.690;2023-07-09T01:17:20;7.38;;;3.20;;
68608;SDS011;55581;46.718;7.690;2023-07-09T01:19:48;7.23;;;3.20;;
68608;SDS011;55581;46.718;7.690;2023-07-09T01:22:15;8.18;;;3.25;;
68608;SDS011;55581;46.718;7.690;2023-07-09T01:27:19;6.57;;;3.00;;
68608;SDS011;55581;46.718;7.690;2023-07-09T01:29:51;9.48;;;3.17;;
68608;SDS011;55581;46.718;7.690;2023-07-09T01:32:18;6.63;;;2.90;;
68608;SDS011;55581;46.718;7.690;2023-07-09T01:34:48;7.38;;;3.05;;
68608;SDS011;55581;46.718;7.690;2023-07-09T01:37:20;6.72;;;2.70;;
68608;SDS011;55581;46.718;7.690;2023-07-09T01:39:49;7.28;;;3.53;;
68608;SDS011;55581;46.718;7.690;2023-07-09T01:42:16;5.53;;;3.20;;
68608;SDS011;55581;46.718;7.690;2023-07-09T01:44:43;6.20;;;3.50;;
68608;SDS011;55581;46.718;7.690;2023-07-09T01:47:11;7.05;;;2.78;;
68608;SDS011;55581;46.718;7.690;2023-07-09T01:49:37;7.10;;;2.90;;
68608;SDS011;55581;46.718;7.690;2023-07-09T01:52:05;6.97;;;3.42;;
68608;SDS011;55581;46.718;7.690;2023-07-09T01:54:33;6.63;;;3.15;;
68608;SDS011;55581;46.718;7.690;2023-07-09T01:59:49;8.02;;;2.85;;
68608;SDS011;55581;46.718;7.690;2023-07-09T02:02:15;6.47;;;2.47;;
68608;SDS011;55581;46.718;7.690;2023-07-09T02:04:47;6.10;;;2.72;;
68608;SDS011;55581;46.718;7.690;2023-07-09T02:07:14;6.72;;;2.97;;
68608;SDS011;55581;46.718;7.690;2023-07-09T02:09:40;6.57;;;2.87;;
68608;SDS011;55581;46.718;7.690;2023-07-09T02:12:06;6.70;;;2.90;;
68608;SDS011;55581;46.718;7.690;2023-07-09T02:14:32;7.97;;;3.60;;
68608;SDS011;55581;46.718;7.690;2023-07-09T02:16:57;7.30;;;2.93;;
68608;SDS011;55581;46.718;7.690;2023-07-09T02:19:23;6.80;;;2.83;;
68608;SDS011;55581;46.718;7.690;2023-07-09T02:21:48;9.10;;;3.42;;
68608;SDS011;55581;46.718;7.690;2023-07-09T02:24:16;5.47;;;2.40;;
68608;SDS011;55581;46.718;7.690;2023-07-09T02:26:42;5.97;;;2.80;;
68608;SDS011;55581;46.718;7.690;2023-07-09T02:29:07;8.73;;;2.90;;
68608;SDS011;55581;46.718;7.690;2023-07-09T02:31:33;7.67;;;2.80;;
68608;SDS011;55581;46.718;7.690;2023-07-09T02:33:58;7.78;;;2.58;;
68608;SDS011;55581;46.718;7.690;2023-07-09T02:36:25;6.82;;;2.70;;
68608;SDS011;55581;46.718;7.690;2023-07-09T02:38:50;7.75;;;2.65;;
68608;SDS011;55581;46.718;7.690;2023-07-09T02:41:16;6.90;;;2.47;;
68608;SDS011;55581;46.718;7.690;2023-07-09T02:43:41;7.03;;;2.90;;
68608;SDS011;55581;46.718;7.690;2023-07-09T02:46:07;6.17;;;2.93;;
68608;SDS011;55581;46.718;7.690;2023-07-09T02:48:34;7.10;;;2.47;;
68608;SDS011;55581;46.718;7.690;2023-07-09T02:51:02;7.13;;;3.45;;
68608;SDS011;55581;46.718;7.690;2023-07-09T02:53:28;9.27;;;3.07;;
68608;SDS011;55581;46.718;7.690;2023-07-09T02:55:53;5.97;;;2.70;;
68608;SDS011;55581;46.718;7.690;2023-07-09T02:58:21;7.32;;;2.50;;
68608;SDS011;55581;46.718;7.690;2023-07-09T03:00:50;7.07;;;2.60;;
68608;SDS011;55581;46.718;7.690;2023-07-09T03:03:18;6.97;;;2.95;;
68608;SDS011;55581;46.718;7.690;2023-07-09T03:05:45;7.13;;;2.90;;
68608;SDS011;55581;46.718;7.690;2023-07-09T03:08:13;6.57;;;2.83;;
68608;SDS011;55581;46.718;7.690;2023-07-09T03:10:45;6.38;;;3.00;;
68608;SDS011;55581;46.718;7.690;2023-07-09T03:13:10;6.88;;;2.70;;
68608;SDS011;55581;46.718;7.690;2023-07-09T03:15:38;6.27;;;2.93;;
68608;SDS011;55581;46.718;7.690;2023-07-09T03:18:03;7.63;;;3.22;;
68608;SDS011;55581;46.718;7.690;2023-07-09T03:20:30;6.75;;;2.65;;
68608;SDS011;55581;46.718;7.690;2023-07-09T03:22:55;8.43;;;2.70;;
68608;SDS011;55581;46.718;7.690;2023-07-09T03:25:21;6.70;;;2.70;;
68608;SDS011;55581;46.718;7.690;2023-07-09T03:27:47;7.47;;;2.80;;
68608;SDS011;55581;46.718;7.690;2023-07-09T03:30:14;7.90;;;2.63;;
68608;SDS011;55581;46.718;7.690;2023-07-09T03:32:40;8.05;;;3.25;;
68608;SDS011;55581;46.718;7.690;2023-07-09T03:35:05;7.50;;;2.93;;
68608;SDS011;55581;46.718;7.690;2023-07-09T03:37:31;5.70;;;2.80;;
68608;SDS011;55581;46.718;7.690;2023-07-09T03:39:57;8.13;;;2.67;;
68608;SDS011;55581;46.718;7.690;2023-07-09T03:42:24;6.88;;;3.15;;
68608;SDS011;55581;46.718;7.690;2023-07-09T03:44:50;8.80;;;3.03;;
68608;SDS011;55581;46.718;7.690;2023-07-09T03:47:15;7.47;;;3.03;;
68608;SDS011;55581;46.718;7.690;2023-07-09T03:49:43;6.82;;;2.80;;
68608;SDS011;55581;46.718;7.690;2023-07-09T03:52:08;7.50;;;3.05;;
68608;SDS011;55581;46.718;7.690;2023-07-09T03:54:34;6.73;;;2.73;;
68608;SDS011;55581;46.718;7.690;2023-07-09T03:56:59;8.20;;;2.47;;
68608;SDS011;55581;46.718;7.690;2023-07-09T03:59:24;5.40;;;2.17;;
68608;SDS011;55581;46.718;7.690;2023-07-09T04:01:51;6.57;;;2.47;;
68608;SDS011;55581;46.718;7.690;2023-07-09T04:04:16;6.57;;;3.03;;
68608;SDS011;55581;46.718;7.690;2023-07-09T04:06:45;6.15;;;2.35;;
68608;SDS011;55581;46.718;7.690;2023-07-09T04:09:11;6.47;;;2.80;;
68608;SDS011;55581;46.718;7.690;2023-07-09T04:11:37;9.13;;;2.47;;
68608;SDS011;55581;46.718;7.690;2023-07-09T04:14:02;7.13;;;2.65;;
68608;SDS011;55581;46.718;7.690;2023-07-09T04:16:32;8.27;;;3.20;;
68608;SDS011;55581;46.718;7.690;2023-07-09T04:18:57;8.23;;;2.85;;
68608;SDS011;55581;46.718;7.690;2023-07-09T04:21:23;13.60;;;2.70;;
68608;SDS011;55581;46.718;7.690;2023-07-09T04:23:48;5.93;;;2.80;;
68608;SDS011;55581;46.718;7.690;2023-07-09T04:26:14;7.03;;;2.50;;
68608;SDS011;55581;46.718;7.690;2023-07-09T04:28:39;5.55;;;2.42;;
68608;SDS011;55581;46.718;7.690;2023-07-09T04:31:05;6.50;;;2.97;;
68608;SDS011;55581;46.718;7.690;2023-07-09T04:33:30;5.70;;;2.40;;
68608;SDS011;55581;46.718;7.690;2023-07-09T04:35:56;7.10;;;2.70;;
68608;SDS011;55581;46.718;7.690;2023-07-09T04:38:22;8.98;;;2.63;;
68608;SDS011;55581;46.718;7.690;2023-07-09T04:40:48;9.65;;;3.30;;
68608;SDS011;55581;46.718;7.690;2023-07-09T04:43:14;7.73;;;2.80;;
68608;SDS011;55581;46.718;7.690;2023-07-09T04:45:40;5.80;;;2.58;;
68608;SDS011;55581;46.718;7.690;2023-07-09T04:48:08;8.77;;;3.27;;
68608;SDS011;55581;46.718;7.690;2023-07-09T04:50:34;7.43;;;3.00;;
68608;SDS011;55581;46.718;7.690;2023-07-09T04:52:59;9.73;;;3.03;;
68608;SDS011;55581;46.718;7.690;2023-07-09T04:55:25;11.20;;;3.25;;
68608;SDS011;55581;46.718;7.690;2023-07-09T04:57:51;9.07;;;3.05;;
68608;SDS011;55581;46.718;7.690;2023-07-09T05:00:17;8.30;;;3.40;;
68608;SDS011;55581;46.718;7.690;2023-07-09T05:02:43;7.22;;;2.72;;
68608;SDS011;55581;46.718;7.690;2023-07-09T05:05:08;6.20;;;2.57;;
68608;SDS011;55581;46.718;7.690;2023-07-09T05:07:34;6.80;;;2.50;;
68608;SDS011;55581;46.718;7.690;2023-07-09T05:10:02;5.63;;;2.23;;
68608;SDS011;55581;46.718;7.690;2023-07-09T05:12:27;6.97;;;2.42;;
68608;SDS011;55581;46.718;7.690;2023-07-09T05:14:54;6.13;;;2.53;;
68608;SDS011;55581;46.718;7.690;2023-07-09T05:17:21;8.80;;;2.88;;
68608;SDS011;55581;46.718;7.690;2023-07-09T05:19:47;6.43;;;2.70;;
68608;SDS011;55581;46.718;7.690;2023-07-09T05:22:14;9.40;;;2.37;;
68608;SDS011;55581;46.718;7.690;2023-07-09T05:24:40;6.18;;;2.88;;
68608;SDS011;55581;46.718;7.690;2023-07-09T05:27:08;7.30;;;2.97;;
68608;SDS011;55581;46.718;7.690;2023-07-09T05:29:35;7.90;;;2.90;;
68608;SDS011;55581;46.718;7.690;2023-07-09T05:32:03;6.97;;;2.72;;
68608;SDS011;55581;46.718;7.690;2023-07-09T05:34:29;12.73;;;2.83;;
68608;SDS011;55581;46.718;7.690;2023-07-09T05:36:57;9.10;;;3.30;;
68608;SDS011;55581;46.718;7.690;2023-07-09T05:39:22;6.83;;;3.17;;
68608;SDS011;55581;46.718;7.690;2023-07-09T05:41:47;7.27;;;2.43;;
68608;SDS011;55581;46.718;7.690;2023-07-09T05:44:17;7.60;;;3.35;;
68608;SDS011;55581;46.718;7.690;2023-07-09T05:46:43;7.13;;;2.53;;
68608;SDS011;55581;46.718;7.690;2023-07-09T05:49:08;8.70;;;3.13;;
68608;SDS011;55581;46.718;7.690;2023-07-09T05:51:34;5.90;;;2.57;;
68608;SDS011;55581;46.718;7.690;2023-07-09T05:54:02;8.57;;;2.80;;
68608;SDS011;55581;46.718;7.690;2023-07-09T05:56:27;8.00;;;3.00;;
68608;SDS011;55581;46.718;7.690;2023-07-09T05:58:53;6.65;;;2.50;;
68608;SDS011;55581;46.718;7.690;2023-07-09T06:01:19;7.78;;;2.65;;
68608;SDS011;55581;46.718;7.690;2023-07-09T06:03:45;9.13;;;2.90;;
68608;SDS011;55581;46.718;7.690;2023-07-09T06:06:11;5.88;;;2.47;;
68608;SDS011;55581;46.718;7.690;2023-07-09T06:08:40;6.18;;;2.90;;
68608;SDS011;55581;46.718;7.690;2023-07-09T06:11:05;5.28;;;2.67;;
68608;SDS011;55581;46.718;7.690;2023-07-09T06:13:32;6.93;;;2.67;;
68608;SDS011;55581;46.718;7.690;2023-07-09T06:16:00;10.23;;;2.95;;
68608;SDS011;55581;46.718;7.690;2023-07-09T06:18:26;7.05;;;2.80;;
68608;SDS011;55581;46.718;7.690;2023-07-09T06:20:58;7.78;;;2.75;;
68608;SDS011;55581;46.718;7.690;2023-07-09T06:23:24;7.35;;;2.55;;
68608;SDS011;55581;46.718;7.690;2023-07-09T06:25:50;7.87;;;3.00;;
68608;SDS011;55581;46.718;7.690;2023-07-09T06:28:20;7.20;;;2.97;;
68608;SDS011;55581;46.718;7.690;2023-07-09T06:30:50;7.03;;;3.38;;
68608;SDS011;55581;46.718;7.690;2023-07-09T06:33:18;9.70;;;3.50;;
68608;SDS011;55581;46.718;7.690;2023-07-09T06:35:53;6.68;;;3.17;;
68608;SDS011;55581;46.718;7.690;2023-07-09T06:38:20;7.68;;;3.05;;
68608;SDS011;55581;46.718;7.690;2023-07-09T06:40:48;9.37;;;2.80;;
68608;SDS011;55581;46.718;7.690;2023-07-09T06:43:14;6.68;;;2.97;;
68608;SDS011;55581;46.718;7.690;2023-07-09T06:45:47;6.40;;;2.80;;
68608;SDS011;55581;46.718;7.690;2023-07-09T06:48:17;6.70;;;3.15;;
68608;SDS011;55581;46.718;7.690;2023-07-09T06:50:43;8.67;;;3.20;;
68608;SDS011;55581;46.718;7.690;2023-07-09T06:53:08;7.10;;;3.23;;
68608;SDS011;55581;46.718;7.690;2023-07-09T06:55:34;7.25;;;2.60;;
68608;SDS011;55581;46.718;7.690;2023-07-09T06:58:00;7.47;;;3.27;;
68608;SDS011;55581;46.718;7.690;2023-07-09T07:00:27;6.00;;;3.20;;
68608;SDS011;55581;46.718;7.690;2023-07-09T07:02:52;6.25;;;3.42;;
68608;SDS011;55581;46.718;7.690;2023-07-09T07:05:18;7.50;;;3.17;;
68608;SDS011;55581;46.718;7.690;2023-07-09T07:07:43;8.57;;;3.28;;
68608;SDS011;55581;46.718;7.690;2023-07-09T07:10:09;6.20;;;3.27;;
68608;SDS011;55581;46.718;7.690;2023-07-09T07:12:45;8.90;;;3.13;;
68608;SDS011;55581;46.718;7.690;2023-07-09T07:15:13;5.47;;;3.22;;
68608;SDS011;55581;46.718;7.690;2023-07-09T07:17:41;5.93;;;3.35;;
68608;SDS011;55581;46.718;7.690;2023-07-09T07:20:08;8.73;;;3.63;;
68608;SDS011;55581;46.718;7.690;2023-07-09T07:22:35;8.27;;;3.22;;
68608;SDS011;55581;46.718;7.690;2023-07-09T07:25:07;6.18;;;3.00;;
68608;SDS011;55581;46.718;7.690;2023-07-09T07:27:33;7.35;;;3.53;;
68608;SDS011;55581;46.718;7.690;2023-07-09T07:29:59;7.50;;;3.35;;
68608;SDS011;55581;46.718;7.690;2023-07-09T07:32:25;10.40;;;4.10;;
68608;SDS011;55581;46.718;7.690;2023-07-09T07:34:51;10.55;;;3.80;;
68608;SDS011;55581;46.718;7.690;2023-07-09T07:37:20;6.33;;;3.30;;
68608;SDS011;55581;46.718;7.690;2023-07-09T07:39:46;6.80;;;3.60;;
68608;SDS011;55581;46.718;7.690;2023-07-09T07:42:12;9.13;;;3.35;;
68608;SDS011;55581;46.718;7.690;2023-07-09T07:44:37;5.73;;;3.27;;
68608;SDS011;55581;46.718;7.690;2023-07-09T07:47:05;7.35;;;3.22;;
68608;SDS011;55581;46.718;7.690;2023-07-09T07:49:31;6.97;;;3.25;;
68608;SDS011;55581;46.718;7.690;2023-07-09T07:51:57;6.87;;;2.80;;
68608;SDS011;55581;46.718;7.690;2023-07-09T07:54:26;6.80;;;3.60;;
68608;SDS011;55581;46.718;7.690;2023-07-09T07:56:51;6.55;;;3.40;;
68608;SDS011;55581;46.718;7.690;2023-07-09T07:59:17;7.63;;;3.30;;
68608;SDS011;55581;46.718;7.690;2023-07-09T08:01:44;9.52;;;3.33;;
68608;SDS011;55581;46.718;7.690;2023-07-09T08:04:09;8.40;;;3.90;;
68608;SDS011;55581;46.718;7.690;2023-07-09T08:06:35;9.83;;;3.77;;
68608;SDS011;55581;46.718;7.690;2023-07-09T08:09:00;6.93;;;3.37;;
68608;SDS011;55581;46.718;7.690;2023-07-09T08:11:26;8.10;;;3.37;;
68608;SDS011;55581;46.718;7.690;2023-07-09T08:13:53;9.13;;;3.28;;
68608;SDS011;55581;46.718;7.690;2023-07-09T08:16:18;9.07;;;4.17;;
68608;SDS011;55581;46.718;7.690;2023-07-09T08:18:44;8.15;;;3.55;;
68608;SDS011;55581;46.718;7.690;2023-07-09T08:21:09;7.90;;;3.53;;
68608;SDS011;55581;46.718;7.690;2023-07-09T08:23:35;8.33;;;4.37;;
68608;SDS011;55581;46.718;7.690;2023-07-09T08:26:02;9.53;;;4.37;;
68608;SDS011;55581;46.718;7.690;2023-07-09T08:28:31;6.68;;;3.75;;
68608;SDS011;55581;46.718;7.690;2023-07-09T08:30:57;7.80;;;3.53;;
68608;SDS011;55581;46.718;7.690;2023-07-09T08:33:23;6.93;;;3.47;;
68608;SDS011;55581;46.718;7.690;2023-07-09T08:35:49;9.07;;;3.90;;
68608;SDS011;55581;46.718;7.690;2023-07-09T08:38:15;8.95;;;3.30;;
68608;SDS011;55581;46.718;7.690;2023-07-09T08:40:42;9.85;;;3.83;;
68608;SDS011;55581;46.718;7.690;2023-07-09T08:48:54;7.97;;;3.33;;
68608;SDS011;55581;46.718;7.690;2023-07-09T08:53:58;7.43;;;3.70;;
68608;SDS011;55581;46.718;7.690;2023-07-09T08:56:25;7.30;;;3.55;;
68608;SDS011;55581;46.718;7.690;2023-07-09T08:58:52;7.90;;;3.20;;
68608;SDS011;55581;46.718;7.690;2023-07-09T09:01:26;9.00;;;3.40;;
68608;SDS011;55581;46.718;7.690;2023-07-09T09:04:00;9.38;;;3.83;;
68608;SDS011;55581;46.718;7.690;2023-07-09T09:06:31;7.95;;;3.78;;
68608;SDS011;55581;46.718;7.690;2023-07-09T09:14:43;7.50;;;4.20;;
68608;SDS011;55581;46.718;7.690;2023-07-09T09:17:15;6.63;;;3.60;;
68608;SDS011;55581;46.718;7.690;2023-07-09T09:19:45;6.18;;;3.65;;
68608;SDS011;55581;46.718;7.690;2023-07-09T09:22:17;7.75;;;3.75;;
68608;SDS011;55581;46.718;7.690;2023-07-09T09:27:34;8.88;;;3.65;;
68608;SDS011;55581;46.718;7.690;2023-07-09T09:29:59;8.57;;;4.43;;
68608;SDS011;55581;46.718;7.690;2023-07-09T09:32:29;7.77;;;3.87;;
68608;SDS011;55581;46.718;7.690;2023-07-09T09:35:11;6.93;;;4.35;;
68608;SDS011;55581;46.718;7.690;2023-07-09T09:37:38;8.60;;;3.90;;
68608;SDS011;55581;46.718;7.690;2023-07-09T09:40:04;8.23;;;3.80;;
68608;SDS011;55581;46.718;7.690;2023-07-09T09:42:30;8.38;;;4.18;;
68608;SDS011;55581;46.718;7.690;2023-07-09T09:44:59;7.03;;;3.70;;
68608;SDS011;55581;46.718;7.690;2023-07-09T09:47:26;6.77;;;4.07;;
68608;SDS011;55581;46.718;7.690;2023-07-09T09:49:53;8.73;;;3.97;;
68608;SDS011;55581;46.718;7.690;2023-07-09T09:52:19;7.20;;;3.67;;
68608;SDS011;55581;46.718;7.690;2023-07-09T09:54:51;9.07;;;4.15;;
68608;SDS011;55581;46.718;7.690;2023-07-09T09:57:22;9.30;;;3.87;;
68608;SDS011;55581;46.718;7.690;2023-07-09T09:59:49;7.18;;;4.25;;
68608;SDS011;55581;46.718;7.690;2023-07-09T10:02:16;8.30;;;3.63;;
68608;SDS011;55581;46.718;7.690;2023-07-09T10:04:47;8.07;;;4.00;;
68608;SDS011;55581;46.718;7.690;2023-07-09T10:07:23;8.70;;;4.30;;
68608;SDS011;55581;46.718;7.690;2023-07-09T10:09:54;7.60;;;4.00;;
68608;SDS011;55581;46.718;7.690;2023-07-09T10:17:36;7.97;;;3.78;;
68608;SDS011;55581;46.718;7.690;2023-07-09T10:20:23;9.55;;;4.20;;
68608;SDS011;55581;46.718;7.690;2023-07-09T10:28:31;8.30;;;4.38;;
68608;SDS011;55581;46.718;7.690;2023-07-09T10:39:09;7.68;;;4.55;;
68608;SDS011;55581;46.718;7.690;2023-07-09T10:41:38;7.32;;;3.88;;
68608;SDS011;55581;46.718;7.690;2023-07-09T10:44:22;6.95;;;4.55;;
68608;SDS011;55581;46.718;7.690;2023-07-09T10:46:53;7.80;;;4.35;;
68608;SDS011;55581;46.718;7.690;2023-07-09T10:49:24;5.63;;;3.60;;
68608;SDS011;55581;46.718;7.690;2023-07-09T10:57:21;7.88;;;4.40;;
68608;SDS011;55581;46.718;7.690;2023-07-09T10:59:53;7.28;;;4.07;;
68608;SDS011;55581;46.718;7.690;2023-07-09T11:04:53;6.72;;;4.05;;
68608;SDS011;55581;46.718;7.690;2023-07-09T11:07:32;8.23;;;3.97;;
68608;SDS011;55581;46.718;7.690;2023-07-09T11:10:09;7.85;;;4.15;;
68608;SDS011;55581;46.718;7.690;2023-07-09T11:12:46;9.07;;;4.25;;
68608;SDS011;55581;46.718;7.690;2023-07-09T11:15:25;8.80;;;4.50;;
68608;SDS011;55581;46.718;7.690;2023-07-09T11:17:57;7.03;;;3.95;;
68608;SDS011;55581;46.718;7.690;2023-07-09T11:20:25;8.40;;;4.25;;
68608;SDS011;55581;46.718;7.690;2023-07-09T11:23:17;9.18;;;4.43;;
68608;SDS011;55581;46.718;7.690;2023-07-09T11:25:45;8.70;;;4.72;;
68608;SDS011;55581;46.718;7.690;2023-07-09T11:28:33;9.50;;;4.20;;
68608;SDS011;55581;46.718;7.690;2023-07-09T11:31:04;6.65;;;4.57;;
68608;SDS011;55581;46.718;7.690;2023-07-09T11:33:45;7.32;;;4.57;;
68608;SDS011;55581;46.718;7.690;2023-07-09T11:36:13;7.32;;;4.18;;
68608;SDS011;55581;46.718;7.690;2023-07-09T11:38:48;9.15;;;4.63;;
68608;SDS011;55581;46.718;7.690;2023-07-09T11:44:03;8.05;;;4.40;;
68608;SDS011;55581;46.718;7.690;2023-07-09T11:46:36;8.40;;;4.90;;
68608;SDS011;55581;46.718;7.690;2023-07-09T11:49:09;8.38;;;4.57;;
68608;SDS011;55581;46.718;7.690;2023-07-09T11:51:44;10.50;;;4.38;;
68608;SDS011;55581;46.718;7.690;2023-07-09T11:54:14;10.70;;;4.45;;
68608;SDS011;55581;46.718;7.690;2023-07-09T11:56:40;7.63;;;4.25;;
68608;SDS011;55581;46.718;7.690;2023-07-09T11:59:07;6.67;;;4.20;;
68608;SDS011;55581;46.718;7.690;2023-07-09T12:01:40;8.77;;;4.68;;
68608;SDS011;55581;46.718;7.690;2023-07-09T12:04:14;8.77;;;4.38;;
68608;SDS011;55581;46.718;7.690;2023-07-09T12:06:41;7.80;;;4.53;;
68608;SDS011;55581;46.718;7.690;2023-07-09T12:09:17;6.55;;;3.85;;
68608;SDS011;55581;46.718;7.690;2023-07-09T12:11:45;8.48;;;4.50;;
68608;SDS011;55581;46.718;7.690;2023-07-09T12:14:18;7.32;;;4.32;;
68608;SDS011;55581;46.718;7.690;2023-07-09T12:16:46;8.65;;;4.50;;
68608;SDS011;55581;46.718;7.690;2023-07-09T12:19:14;6.53;;;4.30;;
68608;SDS011;55581;46.718;7.690;2023-07-09T12:21:44;8.05;;;4.43;;
68608;SDS011;55581;46.718;7.690;2023-07-09T12:26:54;10.13;;;4.70;;
68608;SDS011;55581;46.718;7.690;2023-07-09T12:29:27;6.60;;;4.10;;
68608;SDS011;55581;46.718;7.690;2023-07-09T12:32:02;9.77;;;4.70;;
68608;SDS011;55581;46.718;7.690;2023-07-09T12:34:30;8.35;;;4.28;;
68608;SDS011;55581;46.718;7.690;2023-07-09T12:36:56;8.43;;;4.13;;
68608;SDS011;55581;46.718;7.690;2023-07-09T12:39:25;6.00;;;3.93;;
68608;SDS011;55581;46.718;7.690;2023-07-09T12:41:56;7.13;;;4.28;;
68608;SDS011;55581;46.718;7.690;2023-07-09T12:44:25;9.90;;;5.10;;
68608;SDS011;55581;46.718;7.690;2023-07-09T12:46:54;8.60;;;4.53;;
68608;SDS011;55581;46.718;7.690;2023-07-09T12:51:48;7.57;;;4.40;;
68608;SDS011;55581;46.718;7.690;2023-07-09T12:54:19;6.85;;;4.35;;
68608;SDS011;55581;46.718;7.690;2023-07-09T12:56:54;9.20;;;4.18;;
68608;SDS011;55581;46.718;7.690;2023-07-09T12:59:37;7.57;;;4.60;;
68608;SDS011;55581;46.718;7.690;2023-07-09T13:04:44;10.13;;;4.73;;
68608;SDS011;55581;46.718;7.690;2023-07-09T13:09:51;7.90;;;4.65;;
68608;SDS011;55581;46.718;7.690;2023-07-09T13:12:17;7.85;;;4.47;;
68608;SDS011;55581;46.718;7.690;2023-07-09T13:14:46;10.57;;;4.70;;
68608;SDS011;55581;46.718;7.690;2023-07-09T13:17:18;9.93;;;4.50;;
68608;SDS011;55581;46.718;7.690;2023-07-09T13:19:43;9.60;;;5.07;;
68608;SDS011;55581;46.718;7.690;2023-07-09T13:22:16;8.03;;;4.30;;
68608;SDS011;55581;46.718;7.690;2023-07-09T13:24:45;6.72;;;4.40;;
68608;SDS011;55581;46.718;7.690;2023-07-09T13:27:12;9.95;;;4.28;;
68608;SDS011;55581;46.718;7.690;2023-07-09T13:29:38;6.25;;;4.50;;
68608;SDS011;55581;46.718;7.690;2023-07-09T13:32:11;7.20;;;4.67;;
68608;SDS011;55581;46.718;7.690;2023-07-09T13:34:38;9.05;;;4.85;;
68608;SDS011;55581;46.718;7.690;2023-07-09T13:37:04;9.40;;;4.40;;
68608;SDS011;55581;46.718;7.690;2023-07-09T13:39:33;7.80;;;4.68;;
68608;SDS011;55581;46.718;7.690;2023-07-09T13:41:59;9.00;;;4.90;;
68608;SDS011;55581;46.718;7.690;2023-07-09T13:44:27;8.30;;;4.50;;
68608;SDS011;55581;46.718;7.690;2023-07-09T13:46:55;7.78;;;4.80;;
68608;SDS011;55581;46.718;7.690;2023-07-09T13:49:24;7.90;;;4.80;;
68608;SDS011;55581;46.718;7.690;2023-07-09T13:51:53;7.20;;;4.80;;
68608;SDS011;55581;46.718;7.690;2023-07-09T13:54:26;9.55;;;5.40;;
68608;SDS011;55581;46.718;7.690;2023-07-09T13:56:56;8.60;;;4.75;;
68608;SDS011;55581;46.718;7.690;2023-07-09T13:59:23;7.90;;;4.63;;
68608;SDS011;55581;46.718;7.690;2023-07-09T14:01:51;9.40;;;4.23;;
68608;SDS011;55581;46.718;7.690;2023-07-09T14:04:19;10.18;;;4.88;;
68608;SDS011;55581;46.718;7.690;2023-07-09T14:06:46;8.10;;;4.53;;
68608;SDS011;55581;46.718;7.690;2023-07-09T14:09:13;7.05;;;4.15;;
68608;SDS011;55581;46.718;7.690;2023-07-09T14:11:41;7.93;;;4.82;;
68608;SDS011;55581;46.718;7.690;2023-07-09T14:14:18;9.90;;;4.70;;
68608;SDS011;55581;46.718;7.690;2023-07-09T14:16:45;9.48;;;4.82;;
68608;SDS011;55581;46.718;7.690;2023-07-09T14:19:13;8.57;;;4.63;;
68608;SDS011;55581;46.718;7.690;2023-07-09T14:21:40;11.32;;;5.03;;
68608;SDS011;55581;46.718;7.690;2023-07-09T14:24:20;7.70;;;4.78;;
68608;SDS011;55581;46.718;7.690;2023-07-09T14:26:47;8.80;;;4.50;;
68608;SDS011;55581;46.718;7.690;2023-07-09T14:29:15;7.47;;;4.05;;
68608;SDS011;55581;46.718;7.690;2023-07-09T14:31:41;6.35;;;4.32;;
68608;SDS011;55581;46.718;7.690;2023-07-09T14:34:24;7.20;;;3.80;;
68608;SDS011;55581;46.718;7.690;2023-07-09T14:36:58;8.32;;;4.25;;
68608;SDS011;55581;46.718;7.690;2023-07-09T14:39:25;7.25;;;4.10;;
68608;SDS011;55581;46.718;7.690;2023-07-09T14:41:52;7.18;;;4.10;;
68608;SDS011;55581;46.718;7.690;2023-07-09T14:46:54;6.82;;;4.30;;
68608;SDS011;55581;46.718;7.690;2023-07-09T14:49:21;6.70;;;4.20;;
68608;SDS011;55581;46.718;7.690;2023-07-09T14:51:47;6.80;;;4.32;;
68608;SDS011;55581;46.718;7.690;2023-07-09T14:54:23;7.65;;;4.38;;
68608;SDS011;55581;46.718;7.690;2023-07-09T14:56:55;6.83;;;4.30;;
68608;SDS011;55581;46.718;7.690;2023-07-09T14:59:22;6.78;;;4.20;;
68608;SDS011;55581;46.718;7.690;2023-07-09T15:01:47;8.30;;;4.53;;
68608;SDS011;55581;46.718;7.690;2023-07-09T15:04:30;6.30;;;4.18;;
68608;SDS011;55581;46.718;7.690;2023-07-09T15:06:57;8.60;;;4.20;;
68608;SDS011;55581;46.718;7.690;2023-07-09T15:09:24;6.72;;;3.58;;
68608;SDS011;55581;46.718;7.690;2023-07-09T15:11:52;7.60;;;3.80;;
68608;SDS011;55581;46.718;7.690;2023-07-09T15:14:23;7.00;;;3.92;;
68608;SDS011;55581;46.718;7.690;2023-07-09T15:16:52;9.30;;;4.15;;
68608;SDS011;55581;46.718;7.690;2023-07-09T15:19:22;7.17;;;3.67;;
68608;SDS011;55581;46.718;7.690;2023-07-09T15:21:48;6.78;;;3.70;;
68608;SDS011;55581;46.718;7.690;2023-07-09T15:26:51;9.35;;;4.22;;
68608;SDS011;55581;46.718;7.690;2023-07-09T15:29:21;7.70;;;3.63;;
68608;SDS011;55581;46.718;7.690;2023-07-09T15:31:48;6.80;;;3.80;;
68608;SDS011;55581;46.718;7.690;2023-07-09T15:34:14;6.65;;;4.15;;
68608;SDS011;55581;46.718;7.690;2023-07-09T15:36:44;10.32;;;5.28;;
68608;SDS011;55581;46.718;7.690;2023-07-09T15:39:15;8.88;;;4.55;;
68608;SDS011;55581;46.718;7.690;2023-07-09T15:41:41;8.63;;;4.50;;
68608;SDS011;55581;46.718;7.690;2023-07-09T15:44:16;7.30;;;3.70;;
68608;SDS011;55581;46.718;7.690;2023-07-09T15:46:53;7.43;;;4.18;;
68608;SDS011;55581;46.718;7.690;2023-07-09T15:49:20;8.75;;;4.43;;
68608;SDS011;55581;46.718;7.690;2023-07-09T15:51:46;6.97;;;3.37;;
68608;SDS011;55581;46.718;7.690;2023-07-09T15:54:14;7.43;;;4.10;;
68608;SDS011;55581;46.718;7.690;2023-07-09T15:56:44;6.38;;;3.65;;
68608;SDS011;55581;46.718;7.690;2023-07-09T15:59:34;7.82;;;3.65;;
68608;SDS011;55581;46.718;7.690;2023-07-09T16:02:00;12.63;;;8.10;;
68608;SDS011;55581;46.718;7.690;2023-07-09T16:04:28;11.40;;;5.73;;
68608;SDS011;55581;46.718;7.690;2023-07-09T16:06:54;8.88;;;4.88;;